Time;durP1;ratioP1;P1;durP2;ratioP2;P2;SDS_P1;SDS_P2;PMS_P1;PMS_P2;Temp;Humidity;BMP_temperature;BMP_pressure;BME280_temperature;BME280_humidity;BME280_pressure;Samples;Min_cycle;Max_cycle;Signal;HPM_P1;HPM_P2
2022/10/29 00:06:01;;;;;;;44.03;24.65;;;;;;;16.38;98.36;99847.52;4293347;81;28506;-80
2022/10/29 00:12:03;;;;;;;44.08;24.18;;;;;;;16.43;97.92;99838.63;4285234;81;28663;-79
2022/10/29 00:18:05;;;;;;;40.15;22.80;;;;;;;16.43;98.10;99842.70;4296537;81;28497;-79
2022/10/29 00:24:09;;;;;;;40.10;22.40;;;;;;;16.39;98.19;99828.00;4272233;82;28457;-81
2022/10/29 00:30:12;;;;;;;41.95;22.13;;;;;;;16.38;97.58;99829.88;4297516;81;28483;-81
2022/10/29 00:36:18;;;;;;;38.35;22.05;;;;;;;16.38;97.88;99826.36;4227511;82;28499;-81
2022/10/29 00:42:19;;;;;;;40.80;22.42;;;;;;;16.14;98.97;99827.38;4226034;82;28507;-81
2022/10/29 00:48:23;;;;;;;41.50;23.40;;;;;;;16.24;98.40;99821.27;4300164;81;28488;-80
2022/10/29 00:54:24;;;;;;;40.03;23.10;;;;;;;16.30;97.16;99814.86;4223070;82;28523;-80
2022/10/29 01:00:26;;;;;;;38.92;22.35;;;;;;;16.16;98.20;99802.18;4300241;81;28489;-80
2022/10/29 01:06:32;;;;;;;39.60;22.13;;;;;;;16.14;98.13;99808.39;4224753;82;28564;-80
2022/10/29 01:13:00;;;;;;;34.08;21.12;;;;;;;16.21;98.47;99810.92;4216433;82;28562;-80
2022/10/29 01:19:31;;;;;;;31.15;19.95;;;;;;;16.23;98.33;99804.70;4195391;83;28538;-80
2022/10/29 01:25:59;;;;;;;35.08;19.70;;;;;;;16.19;97.90;99802.22;4190920;85;28541;-80
2022/10/29 01:32:14;;;;;;;32.48;18.82;;;;;;;15.99;99.57;99791.36;4219665;82;28588;-80
2022/10/29 01:38:37;;;;;;;28.40;17.90;;;;;;;16.12;97.98;99793.43;4172002;82;28458;-80
2022/10/29 01:44:49;;;;;;;30.97;18.85;;;;;;;16.00;98.70;99782.15;4225436;82;28509;-79
2022/10/29 01:50:54;;;;;;;30.75;16.77;;;;;;;16.07;98.55;99781.17;4302282;81;28455;-81
2022/10/29 01:56:57;;;;;;;28.62;16.85;;;;;;;16.32;96.46;99780.70;4225358;82;28517;-80
2022/10/29 02:03:13;;;;;;;26.50;16.90;;;;;;;16.34;95.77;99778.55;4189774;83;28529;-81
2022/10/29 02:09:40;;;;;;;29.67;17.15;;;;;;;16.29;96.38;99774.40;4298016;81;28459;-80
2022/10/29 02:15:51;;;;;;;27.85;16.37;;;;;;;16.53;94.53;99773.63;4156978;83;28522;-80
2022/10/29 02:21:55;;;;;;;26.00;16.75;;;;;;;16.45;95.19;99755.06;4289186;81;28498;-80
2022/10/29 02:27:58;;;;;;;25.08;15.68;;;;;;;16.45;95.52;99757.25;4303745;82;28553;-80
2022/10/29 02:33:59;;;;;;;26.95;16.67;;;;;;;16.37;95.65;99753.61;4302451;81;28487;-80
2022/10/29 02:40:01;;;;;;;29.20;18.07;;;;;;;16.45;95.75;99751.83;4303145;81;28527;-81
2022/10/29 02:46:16;;;;;;;29.10;16.48;;;;;;;16.53;95.53;99744.31;4300699;81;28518;-81
2022/10/29 02:52:18;;;;;;;26.23;16.45;;;;;;;16.51;95.67;99743.76;4204388;83;28489;-80
2022/10/29 02:58:19;;;;;;;26.48;16.05;;;;;;;16.72;93.97;99752.42;4303196;81;28565;-81
2022/10/29 03:04:20;;;;;;;24.85;15.00;;;;;;;16.56;95.58;99754.14;4302183;81;28451;-80
2022/10/29 03:10:22;;;;;;;23.27;14.80;;;;;;;16.51;96.37;99747.28;4297247;81;28587;-80
2022/10/29 03:16:23;;;;;;;23.42;14.47;;;;;;;16.69;94.65;99733.90;4297052;81;28514;-79
2022/10/29 03:22:24;;;;;;;20.12;13.10;;;;;;;16.51;95.69;99739.69;4295913;81;28485;-79
2022/10/29 03:28:27;;;;;;;20.43;13.08;;;;;;;16.47;95.48;99745.31;4285175;81;28483;-79
2022/10/29 03:34:28;;;;;;;23.27;14.13;;;;;;;16.34;95.67;99736.48;4294054;81;28507;-81
2022/10/29 03:40:29;;;;;;;21.82;14.33;;;;;;;16.30;95.22;99726.67;4266818;81;28502;-81
2022/10/29 03:46:31;;;;;;;24.67;14.23;;;;;;;16.23;94.77;99737.44;4297116;81;28564;-80
2022/10/29 03:52:33;;;;;;;22.60;13.53;;;;;;;16.00;95.43;99732.53;4296705;81;28554;-81
2022/10/29 03:58:34;;;;;;;20.02;12.28;;;;;;;15.95;95.93;99736.52;4304007;81;28541;-81
2022/10/29 04:04:35;;;;;;;21.73;13.32;;;;;;;15.72;96.64;99720.19;4289448;82;28431;-81
2022/10/29 04:10:48;;;;;;;19.75;12.70;;;;;;;15.94;95.13;99711.83;4290057;82;28505;-81
2022/10/29 04:16:49;;;;;;;20.20;12.47;;;;;;;16.00;94.61;99725.75;4248031;82;28490;-81
2022/10/29 04:22:51;;;;;;;18.48;11.73;;;;;;;15.72;96.22;99728.32;4287963;82;28487;-81
2022/10/29 04:28:52;;;;;;;18.73;11.55;;;;;;;15.66;97.08;99743.38;4250096;82;28516;-82
2022/10/29 04:34:53;;;;;;;19.57;11.35;;;;;;;15.82;98.91;99733.58;4268170;81;28521;-81
2022/10/29 04:40:59;;;;;;;20.75;12.20;;;;;;;15.98;98.01;99741.42;4267549;82;28474;-81
2022/10/29 04:47:00;;;;;;;21.07;12.20;;;;;;;15.99;97.90;99737.67;4274970;82;28593;-80
2022/10/29 04:53:04;;;;;;;19.52;11.88;;;;;;;16.05;96.87;99738.56;4276028;82;28491;-80
2022/10/29 04:59:06;;;;;;;19.35;12.80;;;;;;;15.85;96.96;99736.62;4285384;82;28497;-81
2022/10/29 05:05:08;;;;;;;21.50;12.95;;;;;;;15.99;95.97;99733.60;4217540;83;28477;-81
2022/10/29 05:11:09;;;;;;;27.00;14.35;;;;;;;16.10;95.10;99747.59;4253444;82;28475;-81
2022/10/29 05:17:10;;;;;;;21.97;13.05;;;;;;;16.34;93.35;99752.77;4134600;83;28543;-81
2022/10/29 05:23:12;;;;;;;22.87;13.10;;;;;;;16.54;92.34;99749.47;4284168;82;28435;-78
2022/10/29 05:29:15;;;;;;;21.82;14.05;;;;;;;16.38;92.76;99756.61;4268145;81;28449;-80
2022/10/29 05:35:16;;;;;;;23.85;13.43;;;;;;;16.56;92.00;99753.30;4216189;83;28503;-79
2022/10/29 05:41:18;;;;;;;23.32;14.28;;;;;;;16.64;91.82;99747.95;4215857;83;28496;-80
2022/10/29 05:47:19;;;;;;;22.07;14.30;;;;;;;16.56;92.53;99722.09;4283861;82;28527;-80
2022/10/29 05:53:20;;;;;;;21.20;13.03;;;;;;;16.56;92.30;99712.06;4214963;83;28571;-79
2022/10/29 05:59:22;;;;;;;19.65;12.85;;;;;;;16.77;91.89;99731.30;4223456;82;28515;-76
2022/10/29 06:05:24;;;;;;;19.48;12.13;;;;;;;16.60;93.35;99728.64;4284549;81;28508;-80
2022/10/29 06:11:26;;;;;;;21.57;13.32;;;;;;;16.80;92.09;99742.16;4303089;81;28582;-79
2022/10/29 06:17:27;;;;;;;19.20;12.80;;;;;;;16.83;90.81;99758.77;4297170;81;28492;-79
2022/10/29 06:23:29;;;;;;;17.62;10.93;;;;;;;17.09;90.31;99748.73;4273143;82;28551;-79
2022/10/29 06:29:32;;;;;;;15.00;10.20;;;;;;;17.03;91.55;99745.70;4286169;82;28459;-77
2022/10/29 06:35:34;;;;;;;13.83;9.13;;;;;;;16.82;95.55;99749.53;4279474;80;28580;-77
2022/10/29 06:41:35;;;;;;;17.25;9.05;;;;;;;17.20;92.05;99760.53;4280549;82;28552;-76
2022/10/29 06:47:41;;;;;;;15.03;9.30;;;;;;;17.39;92.18;99762.32;4267065;82;28475;-75
2022/10/29 06:53:42;;;;;;;14.65;8.55;;;;;;;17.56;90.38;99754.86;4283731;82;28474;-76
2022/10/29 06:59:44;;;;;;;14.13;9.18;;;;;;;17.93;90.00;99767.33;4261556;82;28503;-76
2022/10/29 07:05:46;;;;;;;17.20;10.60;;;;;;;18.20;87.12;99767.80;4212490;82;28552;-75
2022/10/29 07:11:47;;;;;;;16.55;10.35;;;;;;;18.33;84.68;99776.84;4234639;82;28451;-75
2022/10/29 07:18:03;;;;;;;16.55;10.82;;;;;;;18.23;83.47;99773.55;4238699;84;28496;-76
2022/10/29 07:24:05;;;;;;;16.40;10.53;;;;;;;18.53;83.75;99791.64;4234279;84;28467;-76
2022/10/29 07:30:07;;;;;;;16.52;9.70;;;;;;;18.71;83.96;99795.79;4245438;82;28475;-77
2022/10/29 07:36:13;;;;;;;14.40;9.80;;;;;;;18.33;84.73;99795.09;4221245;82;28523;-76
2022/10/29 07:42:15;;;;;;;16.45;9.13;;;;;;;18.77;83.97;99796.63;4241631;82;28535;-76
2022/10/29 07:48:19;;;;;;;15.00;8.93;;;;;;;18.38;86.79;99793.22;4245651;82;28503;-77
2022/10/29 07:54:20;;;;;;;14.60;9.25;;;;;;;18.57;86.14;99796.02;4243202;82;28514;-76
2022/10/29 08:00:24;;;;;;;14.00;8.75;;;;;;;18.78;85.18;99807.27;4276578;81;28566;-78
2022/10/29 08:06:25;;;;;;;14.40;8.65;;;;;;;18.65;86.13;99808.57;4304708;81;28498;-77
2022/10/29 08:12:29;;;;;;;15.75;9.10;;;;;;;18.80;85.08;99823.34;4275431;82;28466;-76
2022/10/29 08:18:32;;;;;;;17.90;10.05;;;;;;;19.02;83.71;99819.63;4279554;81;28539;-75
2022/10/29 08:24:33;;;;;;;14.38;9.30;;;;;;;19.25;83.10;99833.29;4291399;81;28556;-76
2022/10/29 08:30:35;;;;;;;17.30;10.82;;;;;;;19.33;82.30;99830.04;4283207;81;28604;-76
2022/10/29 08:36:36;;;;;;;18.27;9.20;;;;;;;19.62;81.02;99832.79;4290812;81;28486;-76
2022/10/29 08:42:49;;;;;;;17.77;8.18;;;;;;;19.91;80.26;99833.61;4290143;81;28493;-76
2022/10/29 08:48:58;;;;;;;12.85;7.80;;;;;;;20.01;79.14;99830.10;4290893;81;28498;-77
2022/10/29 08:55:31;;;;;;;12.50;7.37;;;;;;;20.09;78.20;99836.91;4290436;82;28521;-77
2022/10/29 09:01:34;;;;;;;11.20;7.15;;;;;;;20.30;77.13;99830.31;4284909;82;28584;-78
2022/10/29 09:07:56;;;;;;;10.58;7.20;;;;;;;20.45;76.42;99828.09;4215618;83;28469;-80
2022/10/29 09:14:39;;;;;;;10.63;6.70;;;;;;;20.51;76.25;99830.78;4176116;83;28523;-78
2022/10/29 09:21:13;;;;;;;11.55;6.83;;;;;;;20.82;75.16;99831.53;4284729;82;28486;-77
2022/10/29 09:27:35;;;;;;;10.58;6.45;;;;;;;20.76;74.87;99827.14;4137415;84;28559;-77
2022/10/29 09:33:40;;;;;;;9.83;5.83;;;;;;;21.27;73.89;99825.27;4255873;81;28475;-77
2022/10/29 09:39:43;;;;;;;8.68;5.80;;;;;;;21.30;72.87;99811.84;4275256;81;28497;-77
2022/10/29 09:46:14;;;;;;;11.68;5.35;;;;;;;21.72;71.50;99815.12;4269017;81;28492;-78
2022/10/29 09:52:30;;;;;;;8.13;4.33;;;;;;;22.07;69.89;99822.47;4249807;81;28492;-77
2022/10/29 09:58:36;;;;;;;8.08;4.12;;;;;;;22.38;68.31;99819.41;4274255;81;28513;-77
2022/10/29 10:04:42;;;;;;;7.28;3.85;;;;;;;22.53;66.66;99806.91;4204242;82;28537;-78
2022/10/29 10:10:58;;;;;;;7.45;3.62;;;;;;;22.49;64.58;99799.03;4272536;81;28474;-78
2022/10/29 10:17:02;;;;;;;;;;;;;;;22.69;64.43;99814.39;4285652;81;28503;-77
2022/10/29 10:23:29;;;;;;;5.25;3.25;;;;;;;22.89;63.64;99794.67;4288762;81;20889;-78
2022/10/29 10:29:32;;;;;;;7.60;4.12;;;;;;;23.11;63.69;99788.61;4261635;81;28534;-77
2022/10/29 10:35:34;;;;;;;8.03;3.98;;;;;;;23.21;62.09;99779.98;4293455;81;28519;-77
2022/10/29 10:41:36;;;;;;;9.28;3.40;;;;;;;23.35;61.91;99774.02;4294791;81;28493;-77
2022/10/29 10:47:45;;;;;;;6.42;3.50;;;;;;;23.81;60.46;99769.67;4296485;81;28502;-78
2022/10/29 10:53:54;;;;;;;8.85;3.90;;;;;;;24.00;59.81;99754.22;4288842;81;28495;-77
2022/10/29 11:00:19;;;;;;;7.25;3.62;;;;;;;24.04;59.28;99760.21;4279354;81;28507;-78
2022/10/29 11:06:38;;;;;;;10.80;3.90;;;;;;;24.22;59.35;99750.27;4267834;81;28519;-78
2022/10/29 11:12:52;;;;;;;9.68;3.92;;;;;;;24.15;59.95;99747.66;4277424;81;28487;-75
2022/10/29 11:19:01;;;;;;;11.00;4.15;;;;;;;23.81;59.35;99744.95;4201636;83;28555;-77
2022/10/29 11:25:30;;;;;;;9.05;3.52;;;;;;;23.61;60.03;99738.47;4261637;82;28571;-78
2022/10/29 11:31:46;;;;;;;6.22;3.50;;;;;;;23.62;59.97;99727.20;4157704;82;28577;-77
2022/10/29 11:37:55;;;;;;;7.57;3.80;;;;;;;24.01;59.28;99718.23;4259853;82;28483;-78
2022/10/29 11:43:56;;;;;;;8.63;3.62;;;;;;;23.62;58.95;99729.94;4274177;82;28545;-78
2022/10/29 11:50:27;;;;;;;8.85;3.52;;;;;;;24.01;58.44;99709.99;4255059;82;28499;-78
2022/10/29 11:56:51;;;;;;;9.65;3.60;;;;;;;24.34;57.49;99717.34;4260417;82;28475;-77
2022/10/29 12:03:23;;;;;;;9.23;4.00;;;;;;;24.36;57.46;99715.09;4271024;82;28534;-78
2022/10/29 12:10:13;;;;;;;9.20;4.30;;;;;;;24.16;58.06;99719.06;4258791;82;28495;-78
2022/10/29 12:16:46;;;;;;;8.10;3.90;;;;;;;24.38;58.13;99707.34;4273083;81;28518;-78
2022/10/29 12:23:17;;;;;;;9.65;3.87;;;;;;;24.33;58.06;99719.84;4189879;82;28557;-78
2022/10/29 12:29:46;;;;;;;8.38;3.90;;;;;;;24.33;57.37;99715.14;4196471;82;28511;-78
2022/10/29 12:36:08;;;;;;;11.05;4.30;;;;;;;24.13;57.75;99723.26;4189697;82;28508;-78
2022/10/29 12:42:33;;;;;;;7.17;4.42;;;;;;;24.44;57.40;99703.38;4194140;82;28579;-79
2022/10/29 12:48:56;;;;;;;9.48;4.03;;;;;;;24.09;57.61;99690.64;4273941;81;28544;-77
2022/10/29 12:54:59;;;;;;;6.95;4.28;;;;;;;24.12;57.81;99679.06;4261853;81;28504;-78
2022/10/29 13:01:03;;;;;;;6.55;3.50;;;;;;;24.05;58.17;99679.44;4283968;81;28473;-78
2022/10/29 13:07:23;;;;;;;8.63;4.28;;;;;;;24.44;57.66;99681.95;4266309;83;28462;-86
2022/10/29 13:13:42;;;;;;;7.72;4.10;;;;;;;24.34;57.98;99672.80;4245853;83;28859;-87
2022/10/29 13:20:02;;;;;;;9.68;3.72;;;;;;;24.49;57.84;99681.27;4176172;84;28481;-86
2022/10/29 13:26:10;;;;;;;7.17;3.75;;;;;;;24.60;57.69;99674.17;4162962;84;28508;-85
2022/10/29 13:32:39;;;;;;;10.40;4.10;;;;;;;24.61;57.18;99674.41;4223349;82;28511;-77
2022/10/29 13:38:51;;;;;;;8.85;4.28;;;;;;;24.33;57.03;99664.31;4262485;82;28496;-79
2022/10/29 13:44:56;;;;;;;11.35;3.98;;;;;;;24.70;56.49;99671.77;4271419;82;28610;-80
2022/10/29 13:50:58;;;;;;;9.80;3.87;;;;;;;24.53;56.41;99666.93;4248583;82;28518;-79
2022/10/29 13:57:08;;;;;;;9.18;3.90;;;;;;;24.50;56.26;99662.28;4251900;82;28503;-78
2022/10/29 14:03:36;;;;;;;11.33;4.08;;;;;;;24.23;56.49;99647.50;4226348;82;28565;-78
2022/10/29 14:09:47;;;;;;;10.55;4.25;;;;;;;24.18;56.56;99657.79;4219545;83;28556;-79
2022/10/29 14:16:09;;;;;;;9.70;3.98;;;;;;;24.42;56.31;99660.84;4216339;83;28876;-79
2022/10/29 14:22:21;;;;;;;9.80;4.22;;;;;;;23.77;58.47;99667.63;4215662;83;28515;-78
2022/10/29 14:28:32;;;;;;;13.05;4.85;;;;;;;24.32;57.47;99668.76;4216672;83;28481;-82
2022/10/29 14:34:35;;;;;;;11.88;4.55;;;;;;;24.39;57.40;99666.96;4192747;83;28478;-81
2022/10/29 14:40:37;;;;;;;10.32;4.67;;;;;;;24.46;57.69;99665.41;4201357;83;28563;-78
2022/10/29 14:46:39;;;;;;;11.73;4.67;;;;;;;24.23;58.39;99654.38;4215875;83;28527;-78
2022/10/29 14:52:45;;;;;;;9.20;4.92;;;;;;;24.04;58.92;99649.56;4214231;83;28485;-78
2022/10/29 14:58:47;;;;;;;9.70;5.10;;;;;;;24.05;59.16;99647.86;4214130;83;28520;-78
2022/10/29 15:04:57;;;;;;;11.57;5.15;;;;;;;23.87;59.77;99648.78;4150908;84;28547;-78
2022/10/29 15:10:59;;;;;;;8.93;4.30;;;;;;;23.76;59.87;99646.78;4283242;81;28502;-79
2022/10/29 15:17:08;;;;;;;10.78;4.85;;;;;;;23.43;60.73;99664.70;4295589;81;28514;-78
2022/10/29 15:23:21;;;;;;;10.63;5.90;;;;;;;23.34;60.92;99664.02;4194466;83;28513;-78
2022/10/29 15:29:25;;;;;;;12.25;6.05;;;;;;;23.28;61.04;99665.24;4294428;81;28499;-77
2022/10/29 15:35:30;;;;;;;11.97;5.60;;;;;;;22.97;61.65;99669.27;4288788;81;28479;-76
2022/10/29 15:41:41;;;;;;;14.68;6.65;;;;;;;22.88;61.96;99679.85;4297131;81;28475;-88
2022/10/29 15:47:49;;;;;;;13.83;6.78;;;;;;;22.65;62.51;99682.36;4273588;81;28494;-89
2022/10/29 15:53:52;;;;;;;15.55;6.70;;;;;;;22.26;63.56;99682.86;4302164;81;28471;-79
2022/10/29 15:59:56;;;;;;;13.48;7.28;;;;;;;22.67;62.58;99682.91;4279815;81;28463;-86
2022/10/29 16:06:03;;;;;;;15.25;7.92;;;;;;;22.60;62.77;99688.75;4299912;81;28587;-84
2022/10/29 16:12:05;;;;;;;15.63;8.25;;;;;;;22.39;63.10;99689.55;4237756;83;28529;-84
2022/10/29 16:18:07;;;;;;;17.45;9.15;;;;;;;22.34;63.36;99700.59;4205471;83;28470;-84
2022/10/29 16:24:13;;;;;;;15.98;8.73;;;;;;;22.26;63.01;99683.69;4277969;82;28495;-83
2022/10/29 16:30:22;;;;;;;18.80;9.63;;;;;;;22.17;63.10;99675.86;4271598;82;28471;-84
2022/10/29 16:36:26;;;;;;;18.70;9.08;;;;;;;21.92;63.64;99678.35;4254672;82;28471;-84
2022/10/29 16:42:33;;;;;;;;;;;;;;;21.90;63.85;99676.47;4284559;82;28475;-83
2022/10/29 16:48:34;;;;;;;17.30;10.32;;;;;;;21.90;64.25;99673.73;4295275;81;20169;-83
2022/10/29 16:54:38;;;;;;;16.77;9.85;;;;;;;21.51;65.44;99681.76;4257311;82;28534;-84
2022/10/29 17:00:39;;;;;;;18.85;10.30;;;;;;;21.40;65.55;99675.59;4266664;82;28510;-84
2022/10/29 17:06:43;;;;;;;18.20;10.30;;;;;;;21.46;65.70;99668.14;4292506;81;28501;-85
2022/10/29 17:12:44;;;;;;;17.77;10.48;;;;;;;21.35;65.99;99689.29;4293475;81;28503;-85
2022/10/29 17:18:51;;;;;;;18.95;11.48;;;;;;;21.31;66.47;99693.15;4288294;81;28473;-85
2022/10/29 17:24:51;;;;;;;20.82;11.95;;;;;;;21.21;66.83;99689.13;4287031;81;28530;-85
2022/10/29 17:30:53;;;;;;;19.10;11.48;;;;;;;21.17;67.09;99688.09;4279434;82;28475;-86
2022/10/29 17:36:57;;;;;;;18.57;11.43;;;;;;;21.29;66.89;99691.26;4220158;81;28507;-83
2022/10/29 17:42:58;;;;;;;20.30;12.15;;;;;;;21.27;66.82;99691.27;4287531;81;28505;-83
2022/10/29 17:49:04;;;;;;;21.40;12.18;;;;;;;21.25;67.05;99689.38;4279589;80;28479;-83
2022/10/29 17:55:06;;;;;;;22.17;11.73;;;;;;;21.35;66.91;99698.03;4284340;81;28458;-84
2022/10/29 18:01:09;;;;;;;21.17;12.10;;;;;;;21.03;68.17;99705.69;4246406;82;28505;-83
2022/10/29 18:07:10;;;;;;;22.22;12.30;;;;;;;20.98;68.22;99700.24;4285697;81;28462;-83
2022/10/29 18:13:12;;;;;;;23.02;12.65;;;;;;;20.92;68.69;99694.56;4309752;81;28520;-83
2022/10/29 18:19:13;;;;;;;23.12;12.65;;;;;;;20.90;68.62;99686.64;4300828;81;28526;-84
2022/10/29 18:25:16;;;;;;;24.32;12.28;;;;;;;20.83;69.17;99688.90;4303922;81;28538;-79
2022/10/29 18:31:26;;;;;;;22.60;13.15;;;;;;;20.73;69.68;99691.93;4293895;81;28503;-79
2022/10/29 18:37:28;;;;;;;21.62;13.10;;;;;;;20.69;69.70;99677.75;4267449;81;28465;-79
2022/10/29 18:43:35;;;;;;;25.37;15.38;;;;;;;20.58;70.05;99681.91;4307720;81;28496;-78
2022/10/29 18:49:36;;;;;;;;;;;;;;;;;;4288461;81;28510;-76
2022/10/29 18:55:38;;;;;;;24.77;14.47;;;;;;;20.31;71.69;99684.50;4268261;81;20971;-77
2022/10/29 19:01:45;;;;;;;29.30;14.87;;;;;;;20.25;71.93;99680.71;4294861;80;28498;-77
2022/10/29 19:07:47;;;;;;;27.65;15.63;;;;;;;20.16;72.62;99683.22;4298527;80;28484;-76
2022/10/29 19:13:50;;;;;;;26.65;15.65;;;;;;;19.96;74.07;99683.56;4282228;81;28582;-79
2022/10/29 19:19:52;;;;;;;27.55;16.00;;;;;;;19.96;74.20;99682.20;4302143;81;28490;-78
2022/10/29 19:25:53;;;;;;;33.15;16.20;;;;;;;20.12;73.57;99688.42;4297031;81;28534;-79
2022/10/29 19:31:55;;;;;;;28.27;16.25;;;;;;;20.06;74.34;99703.16;4287119;81;28509;-80
2022/10/29 19:37:56;;;;;;;28.55;16.48;;;;;;;20.10;74.22;99706.16;4271945;81;28478;-78
2022/10/29 19:44:01;;;;;;;22.20;14.28;;;;;;;20.08;74.25;99703.70;4297590;81;28497;-78
2022/10/29 19:50:04;;;;;;;24.02;13.95;;;;;;;20.11;74.54;99692.78;4307426;80;28580;-78
2022/10/29 19:56:08;;;;;;;25.52;15.18;;;;;;;20.21;73.85;99705.02;4277369;81;28501;-79
2022/10/29 20:02:14;;;;;;;28.12;15.93;;;;;;;20.15;74.06;99708.86;4295552;81;28482;-81
2022/10/29 20:08:17;;;;;;;28.10;16.23;;;;;;;20.31;72.91;99700.88;4244817;82;28491;-78
2022/10/29 20:14:19;;;;;;;30.05;16.97;;;;;;;20.20;73.96;99696.56;4256576;82;28504;-81
2022/10/29 20:20:20;;;;;;;28.32;17.60;;;;;;;20.20;73.55;99699.30;4250291;82;28520;-81
2022/10/29 20:26:22;;;;;;;32.42;18.37;;;;;;;20.28;73.22;99704.19;4256294;82;28548;-77
2022/10/29 20:32:23;;;;;;;29.48;17.70;;;;;;;20.10;73.47;99702.89;4258107;82;28546;-80
2022/10/29 20:38:25;;;;;;;32.58;18.55;;;;;;;20.11;73.69;99709.98;4248523;83;29284;-77
2022/10/29 20:44:26;;;;;;;35.00;18.90;;;;;;;20.03;73.94;99708.62;4222997;82;28497;-79
2022/10/29 20:50:27;;;;;;;32.13;18.80;;;;;;;20.02;73.98;99706.19;4253018;82;28532;-80
2022/10/29 20:56:30;;;;;;;32.40;19.20;;;;;;;20.08;74.11;99704.27;4213538;83;28507;-80
2022/10/29 21:02:33;;;;;;;29.82;17.75;;;;;;;19.92;75.25;99701.00;4194376;83;28885;-80
2022/10/29 21:08:35;;;;;;;32.03;17.95;;;;;;;19.94;75.57;99712.22;4206524;84;28683;-81
2022/10/29 21:14:36;;;;;;;31.33;17.02;;;;;;;20.01;74.95;99710.02;4222443;83;28532;-82
2022/10/29 21:20:37;;;;;;;26.15;15.90;;;;;;;19.87;76.21;99720.10;4223308;83;28497;-80
2022/10/29 21:26:39;;;;;;;26.02;16.42;;;;;;;19.61;77.46;99708.42;4222949;83;28484;-81
2022/10/29 21:32:40;;;;;;;27.87;17.12;;;;;;;19.83;76.75;99698.56;4223682;83;28589;-80
2022/10/29 21:38:42;;;;;;;29.30;16.42;;;;;;;19.82;77.30;99701.03;4223156;83;28495;-80
2022/10/29 21:44:43;;;;;;;33.05;17.17;;;;;;;19.74;77.57;99707.05;4233355;81;28513;-81
2022/10/29 21:50:45;;;;;;;26.05;16.75;;;;;;;19.89;76.70;99682.47;4223321;83;28470;-81
2022/10/29 21:56:47;;;;;;;25.50;15.53;;;;;;;19.76;77.14;99668.02;4223261;83;28507;-81
2022/10/29 22:02:48;;;;;;;31.80;17.10;;;;;;;19.57;77.77;99675.98;4223108;83;28485;-81
2022/10/29 22:08:56;;;;;;;26.30;16.12;;;;;;;19.75;76.92;99661.77;4222440;83;28465;-81
2022/10/29 22:14:58;;;;;;;26.90;17.20;;;;;;;19.61;77.71;99653.34;4223077;83;28521;-80
2022/10/29 22:21:13;;;;;;;27.67;17.80;;;;;;;19.65;77.43;99657.70;4204482;83;28524;-80
2022/10/29 22:27:14;;;;;;;27.32;16.55;;;;;;;19.65;77.48;99642.13;4223534;83;28488;-81
2022/10/29 22:33:16;;;;;;;28.92;16.70;;;;;;;19.57;78.57;99635.87;4222414;83;28494;-81
2022/10/29 22:39:17;;;;;;;26.90;15.80;;;;;;;19.53;78.71;99636.73;4223607;83;28434;-81
2022/10/29 22:45:19;;;;;;;24.67;15.15;;;;;;;19.36;80.47;99647.39;4206328;83;28478;-81
2022/10/29 22:51:26;;;;;;;25.32;15.88;;;;;;;19.35;80.54;99633.48;4223901;83;28464;-81
2022/10/29 22:57:28;;;;;;;24.98;15.80;;;;;;;19.47;80.18;99629.91;4217633;83;28540;-83
2022/10/29 23:03:29;;;;;;;25.00;16.20;;;;;;;19.59;78.85;99630.16;4189350;84;28535;-81
2022/10/29 23:09:30;;;;;;;25.05;16.00;;;;;;;19.42;79.75;99633.20;4181267;85;28591;-83
2022/10/29 23:15:32;;;;;;;25.40;15.38;;;;;;;19.31;80.98;99618.22;4195516;83;28481;-81
2022/10/29 23:21:33;;;;;;;26.40;16.40;;;;;;;19.44;79.79;99615.48;4223365;83;28509;-81
2022/10/29 23:27:35;;;;;;;26.52;15.48;;;;;;;19.37;80.20;99612.21;4223096;83;28472;-81
2022/10/29 23:33:36;;;;;;;24.12;14.90;;;;;;;19.40;79.96;99616.30;4223363;83;28489;-81
2022/10/29 23:39:38;;;;;;;25.80;14.83;;;;;;;19.27;80.39;99617.69;4223307;83;28473;-81
2022/10/29 23:45:40;;;;;;;26.68;15.15;;;;;;;18.88;82.68;99626.66;4243920;83;28531;-81
2022/10/29 23:51:42;;;;;;;24.87;15.58;;;;;;;18.72;84.27;99637.29;4223013;83;28562;-80
2022/10/29 23:57:43;;;;;;;22.15;15.03;;;;;;;19.18;81.92;99640.04;4223209;83;28497;-81
